Time;durP1;ratioP1;P1;durP2;ratioP2;P2;SDS_P1;SDS_P2;PMS_P1;PMS_P2;Temp;Humidity;BMP_temperature;BMP_pressure;BME280_temperature;BME280_humidity;BME280_pressure;Samples;Min_cycle;Max_cycle;Signal;HPM_P1;HPM_P2
2023/09/30 00:01:36;;;;;;;3.95;1.30;;;;;;;;;;4958168;28;20871;-80
2023/09/30 00:04:03;;;;;;;7.03;1.23;;;;;;;;;;4976161;28;20090;-79
2023/09/30 00:06:28;;;;;;;6.63;1.38;;;;;;;;;;4941619;28;20344;-80
2023/09/30 00:08:54;;;;;;;5.10;1.35;;;;;;;;;;4942593;28;20046;-79
2023/09/30 00:11:19;;;;;;;6.35;1.48;;;;;;;;;;4959273;28;20513;-80
2023/09/30 00:13:45;;;;;;;7.28;1.42;;;;;;;;;;4957544;28;20043;-80
2023/09/30 00:16:11;;;;;;;6.10;1.50;;;;;;;;;;4941769;28;20035;-80
2023/09/30 00:18:36;;;;;;;8.25;1.40;;;;;;;;;;4965635;28;20088;-81
2023/09/30 00:21:02;;;;;;;5.65;1.38;;;;;;;;;;4973693;28;20066;-80
2023/09/30 00:23:28;;;;;;;7.85;1.70;;;;;;;;;;4960436;28;20101;-78
2023/09/30 00:25:54;;;;;;;8.07;1.75;;;;;;;;;;4958285;28;20090;-79
2023/09/30 00:28:19;;;;;;;7.53;1.70;;;;;;;;;;4956736;28;20114;-78
2023/09/30 00:30:47;;;;;;;7.30;1.67;;;;;;;;;;4957339;28;20052;-79
2023/09/30 00:33:13;;;;;;;6.90;1.50;;;;;;;;;;4962341;28;20900;-78
2023/09/30 00:35:39;;;;;;;7.13;1.60;;;;;;;;;;4959200;28;20118;-79
2023/09/30 00:38:04;;;;;;;6.65;1.50;;;;;;;;;;4949195;28;20117;-79
2023/09/30 00:40:30;;;;;;;7.45;1.70;;;;;;;;;;4959238;28;20133;-78
2023/09/30 00:42:55;;;;;;;7.72;1.90;;;;;;;;;;4948390;28;20066;-78
2023/09/30 00:45:21;;;;;;;5.93;1.58;;;;;;;;;;4973580;28;20695;-79
2023/09/30 00:47:47;;;;;;;7.35;1.90;;;;;;;;;;4957098;28;20483;-78
2023/09/30 00:50:13;;;;;;;7.43;1.77;;;;;;;;;;4958123;28;20049;-78
2023/09/30 00:52:39;;;;;;;8.07;2.00;;;;;;;;;;4958150;28;20038;-79
2023/09/30 00:55:05;;;;;;;11.10;2.00;;;;;;;;;;4955954;28;20042;-79
2023/09/30 00:57:31;;;;;;;6.50;1.70;;;;;;;;;;4957082;28;21003;-79
2023/09/30 00:59:57;;;;;;;8.68;2.00;;;;;;;;;;4940378;28;20038;-79
2023/09/30 01:02:23;;;;;;;7.57;1.65;;;;;;;;;;4956762;28;20554;-79
2023/09/30 01:04:49;;;;;;;9.23;2.00;;;;;;;;;;4963202;28;20153;-79
2023/09/30 01:07:14;;;;;;;10.20;2.25;;;;;;;;;;4963008;28;20043;-79
2023/09/30 01:09:40;;;;;;;7.63;1.90;;;;;;;;;;4955328;28;20070;-78
2023/09/30 01:12:06;;;;;;;7.65;1.92;;;;;;;;;;4962138;28;20070;-79
2023/09/30 01:14:40;;;;;;;8.88;2.35;;;;;;;;;;4962558;28;20043;-79
2023/09/30 01:17:08;;;;;;;7.50;2.03;;;;;;;;;;4957692;28;20110;-79
2023/09/30 01:19:34;;;;;;;7.93;2.10;;;;;;;;;;4957299;28;20023;-79
2023/09/30 01:21:59;;;;;;;9.20;1.98;;;;;;;;;;4940346;28;20395;-80
2023/09/30 01:24:26;;;;;;;11.23;1.83;;;;;;;;;;4956337;28;20484;-80
2023/09/30 01:26:52;;;;;;;9.23;2.40;;;;;;;;;;4975044;28;20039;-81
2023/09/30 01:29:18;;;;;;;9.52;2.00;;;;;;;;;;4959664;28;20130;-81
2023/09/30 01:31:43;;;;;;;10.25;2.15;;;;;;;;;;4941240;28;20930;-82
2023/09/30 01:34:10;;;;;;;8.50;2.25;;;;;;;;;;4957713;28;20069;-81
2023/09/30 01:36:36;;;;;;;7.72;2.00;;;;;;;;;;4962610;28;20041;-81
2023/09/30 01:39:02;;;;;;;9.95;2.00;;;;;;;;;;4963096;28;20487;-82
2023/09/30 01:41:28;;;;;;;11.05;2.20;;;;;;;;;;4948960;28;20113;-81
2023/09/30 01:43:53;;;;;;;10.00;2.05;;;;;;;;;;4940169;28;20039;-81
2023/09/30 01:46:19;;;;;;;10.70;2.70;;;;;;;;;;4959546;28;20030;-82
2023/09/30 01:48:44;;;;;;;10.98;2.33;;;;;;;;;;4973211;28;20117;-82
2023/09/30 01:51:09;;;;;;;7.93;2.30;;;;;;;;;;4947524;28;20038;-81
2023/09/30 01:53:35;;;;;;;8.80;2.10;;;;;;;;;;4947474;28;20066;-81
2023/09/30 01:56:00;;;;;;;7.88;2.17;;;;;;;;;;4956634;28;20039;-81
2023/09/30 01:58:26;;;;;;;9.50;2.35;;;;;;;;;;4974690;28;20050;-80
2023/09/30 02:00:52;;;;;;;11.02;2.45;;;;;;;;;;4941527;28;20041;-80
2023/09/30 02:03:17;;;;;;;8.23;2.67;;;;;;;;;;4940721;28;20043;-82
2023/09/30 02:05:43;;;;;;;10.18;2.33;;;;;;;;;;4953828;28;20364;-80
2023/09/30 02:08:08;;;;;;;9.80;2.15;;;;;;;;;;4956963;28;20043;-81
2023/09/30 02:10:34;;;;;;;9.43;2.08;;;;;;;;;;4955849;28;20063;-80
2023/09/30 02:12:59;;;;;;;11.27;2.30;;;;;;;;;;4971742;28;20122;-81
2023/09/30 02:15:45;;;;;;;10.57;2.38;;;;;;;;;;4939352;28;20053;-80
2023/09/30 02:18:11;;;;;;;9.07;2.33;;;;;;;;;;4909292;29;20039;-81
2023/09/30 02:20:39;;;;;;;9.68;2.15;;;;;;;;;;4914857;29;20455;-80
2023/09/30 02:23:06;;;;;;;7.78;2.65;;;;;;;;;;4885805;29;20783;-82
2023/09/30 02:25:32;;;;;;;9.82;2.30;;;;;;;;;;4892779;28;20880;-80
2023/09/30 02:27:57;;;;;;;7.45;2.08;;;;;;;;;;4908017;29;20198;-81
2023/09/30 02:30:23;;;;;;;10.40;2.22;;;;;;;;;;4883577;29;20094;-80
2023/09/30 02:32:49;;;;;;;7.78;2.28;;;;;;;;;;4909106;29;20050;-81
2023/09/30 02:35:19;;;;;;;7.32;1.88;;;;;;;;;;4908419;29;20039;-81
2023/09/30 02:37:44;;;;;;;12.82;3.30;;;;;;;;;;4922682;29;20036;-80
2023/09/30 02:40:10;;;;;;;8.05;2.28;;;;;;;;;;4893311;29;20044;-81
2023/09/30 02:42:39;;;;;;;11.75;2.70;;;;;;;;;;4907935;29;20408;-82
2023/09/30 02:45:07;;;;;;;11.77;2.20;;;;;;;;;;4892988;29;20036;-82
2023/09/30 02:47:33;;;;;;;10.93;2.30;;;;;;;;;;4893721;28;20091;-82
2023/09/30 02:49:59;;;;;;;8.75;2.58;;;;;;;;;;4924177;28;20044;-81
2023/09/30 02:52:25;;;;;;;10.18;2.33;;;;;;;;;;4908755;29;20793;-82
2023/09/30 02:54:51;;;;;;;11.60;2.20;;;;;;;;;;4935496;28;20043;-81
2023/09/30 02:57:17;;;;;;;9.30;2.45;;;;;;;;;;4970123;28;20043;-81
2023/09/30 02:59:44;;;;;;;13.30;2.60;;;;;;;;;;4972505;28;20045;-80
2023/09/30 03:02:11;;;;;;;12.77;2.22;;;;;;;;;;4972309;28;20049;-81
2023/09/30 03:04:36;;;;;;;13.73;3.00;;;;;;;;;;4962989;28;20110;-82
2023/09/30 03:07:02;;;;;;;10.00;2.45;;;;;;;;;;4954373;28;20036;-81
2023/09/30 03:09:27;;;;;;;12.38;2.92;;;;;;;;;;4957997;28;20466;-81
2023/09/30 03:11:55;;;;;;;10.43;2.50;;;;;;;;;;4953558;28;20047;-82
2023/09/30 03:14:22;;;;;;;11.57;2.38;;;;;;;;;;4970275;28;20394;-81
2023/09/30 03:16:48;;;;;;;10.50;2.90;;;;;;;;;;4956413;28;20495;-81
2023/09/30 03:19:16;;;;;;;9.70;2.72;;;;;;;;;;4956168;28;20097;-82
2023/09/30 03:21:41;;;;;;;10.43;2.67;;;;;;;;;;4957092;28;20046;-81
2023/09/30 03:24:08;;;;;;;9.50;2.58;;;;;;;;;;4956220;28;20043;-82
2023/09/30 03:26:35;;;;;;;10.05;2.78;;;;;;;;;;4974142;28;20109;-83
2023/09/30 03:29:00;;;;;;;12.25;2.80;;;;;;;;;;4965523;28;20043;-82
2023/09/30 03:31:26;;;;;;;10.30;2.97;;;;;;;;;;4973829;28;20038;-82
2023/09/30 03:33:54;;;;;;;12.80;2.65;;;;;;;;;;4958986;28;20039;-81
2023/09/30 03:36:22;;;;;;;17.95;3.55;;;;;;;;;;4959239;28;20066;-81
2023/09/30 03:38:47;;;;;;;12.48;3.08;;;;;;;;;;4949457;28;20526;-82
2023/09/30 03:41:13;;;;;;;13.45;3.00;;;;;;;;;;4960112;28;20035;-82
2023/09/30 03:43:41;;;;;;;9.75;2.80;;;;;;;;;;4943949;28;20035;-80
2023/09/30 03:46:09;;;;;;;9.68;2.70;;;;;;;;;;4948989;28;20043;-79
2023/09/30 03:48:39;;;;;;;14.25;3.33;;;;;;;;;;4949705;28;20041;-81
2023/09/30 03:51:13;;;;;;;10.70;2.60;;;;;;;;;;4974094;28;20047;-81
2023/09/30 03:53:42;;;;;;;11.55;2.80;;;;;;;;;;4964746;28;20034;-82
2023/09/30 03:56:11;;;;;;;13.95;3.20;;;;;;;;;;4957635;28;20043;-81
2023/09/30 03:58:38;;;;;;;10.45;2.60;;;;;;;;;;4942281;28;20105;-82
2023/09/30 04:01:04;;;;;;;15.67;3.47;;;;;;;;;;4958662;28;20426;-80
2023/09/30 04:03:32;;;;;;;14.77;2.90;;;;;;;;;;4957832;28;20031;-81
2023/09/30 04:05:58;;;;;;;9.93;2.78;;;;;;;;;;4963672;28;20039;-81
2023/09/30 04:08:23;;;;;;;10.88;2.85;;;;;;;;;;4941138;28;20038;-80
2023/09/30 04:10:49;;;;;;;10.57;2.80;;;;;;;;;;4942141;28;20046;-81
2023/09/30 04:13:14;;;;;;;12.88;3.05;;;;;;;;;;4933104;28;20070;-80
2023/09/30 04:15:39;;;;;;;11.35;3.17;;;;;;;;;;4957473;28;20038;-82
2023/09/30 04:18:05;;;;;;;14.05;3.10;;;;;;;;;;4958436;28;20595;-82
2023/09/30 04:20:31;;;;;;;13.25;2.88;;;;;;;;;;4956753;28;20049;-82
2023/09/30 04:22:57;;;;;;;11.45;3.28;;;;;;;;;;4957287;28;20459;-82
2023/09/30 04:25:24;;;;;;;10.90;2.70;;;;;;;;;;4958489;28;20039;-82
2023/09/30 04:27:50;;;;;;;11.18;3.28;;;;;;;;;;4957769;28;20031;-82
2023/09/30 04:30:15;;;;;;;12.38;3.10;;;;;;;;;;4973658;28;20042;-80
2023/09/30 04:32:41;;;;;;;12.02;3.03;;;;;;;;;;4941331;28;20387;-80
2023/09/30 04:35:09;;;;;;;17.58;3.53;;;;;;;;;;4940427;28;20138;-81
2023/09/30 04:37:36;;;;;;;10.20;2.70;;;;;;;;;;4974026;28;20492;-82
2023/09/30 04:40:07;;;;;;;11.35;2.95;;;;;;;;;;4955894;28;20035;-82
2023/09/30 04:42:36;;;;;;;11.98;2.70;;;;;;;;;;4963085;28;20368;-82
2023/09/30 04:45:04;;;;;;;14.20;2.78;;;;;;;;;;4964446;28;20082;-81
2023/09/30 04:47:29;;;;;;;;;;;;;;;;;;4957476;28;20110;-82
2023/09/30 04:49:55;;;;;;;13.63;3.67;;;;;;;;;;4974958;28;19914;-80
2023/09/30 04:52:20;;;;;;;15.25;3.38;;;;;;;;;;4958455;28;20037;-82
2023/09/30 04:54:47;;;;;;;11.40;2.97;;;;;;;;;;4974473;28;20101;-81
2023/09/30 04:57:12;;;;;;;10.68;3.53;;;;;;;;;;4974963;28;20043;-82
2023/09/30 04:59:38;;;;;;;8.63;2.60;;;;;;;;;;4942171;28;20061;-81
2023/09/30 05:02:04;;;;;;;13.68;3.17;;;;;;;;;;4976367;28;20119;-81
2023/09/30 05:04:29;;;;;;;15.63;2.92;;;;;;;;;;4956674;28;20485;-80
2023/09/30 05:06:55;;;;;;;11.15;2.80;;;;;;;;;;4949777;28;20035;-81
2023/09/30 05:09:20;;;;;;;13.13;4.40;;;;;;;;;;4941705;28;20047;-82
2023/09/30 05:11:46;;;;;;;13.73;3.05;;;;;;;;;;4957199;28;20047;-81
2023/09/30 05:14:11;;;;;;;11.90;3.10;;;;;;;;;;4963502;28;20395;-81
2023/09/30 05:16:37;;;;;;;13.07;3.00;;;;;;;;;;4959975;28;20041;-81
2023/09/30 05:19:03;;;;;;;13.18;2.83;;;;;;;;;;4956403;28;21078;-81
2023/09/30 05:21:31;;;;;;;14.05;3.10;;;;;;;;;;4950316;28;20027;-80
2023/09/30 05:23:57;;;;;;;10.63;2.60;;;;;;;;;;4973447;28;20045;-82
2023/09/30 05:26:22;;;;;;;13.00;2.83;;;;;;;;;;4958084;28;20035;-82
2023/09/30 05:28:47;;;;;;;10.02;2.92;;;;;;;;;;4941541;28;20031;-81
2023/09/30 05:31:13;;;;;;;10.75;2.97;;;;;;;;;;4957028;28;20046;-80
2023/09/30 05:33:39;;;;;;;10.88;2.75;;;;;;;;;;4942754;28;20055;-81
2023/09/30 05:36:04;;;;;;;12.48;3.55;;;;;;;;;;4960377;28;20086;-81
2023/09/30 05:38:31;;;;;;;13.50;3.03;;;;;;;;;;4972088;28;20042;-81
2023/09/30 05:41:01;;;;;;;12.47;3.23;;;;;;;;;;4940676;28;20503;-81
2023/09/30 05:43:27;;;;;;;13.70;3.08;;;;;;;;;;4962095;28;20062;-80
2023/09/30 05:45:54;;;;;;;13.93;3.22;;;;;;;;;;4959738;28;20042;-80
2023/09/30 05:48:23;;;;;;;11.77;3.30;;;;;;;;;;4923733;28;20411;-81
2023/09/30 05:50:48;;;;;;;10.88;3.17;;;;;;;;;;4939249;28;20046;-82
2023/09/30 05:53:16;;;;;;;12.90;3.20;;;;;;;;;;4941168;28;20450;-79
2023/09/30 05:55:42;;;;;;;11.55;2.90;;;;;;;;;;4958624;28;20435;-84
2023/09/30 05:58:09;;;;;;;10.50;2.53;;;;;;;;;;4957449;28;20038;-82
2023/09/30 06:00:35;;;;;;;10.57;3.15;;;;;;;;;;4959487;28;20038;-84
2023/09/30 06:03:01;;;;;;;9.68;2.72;;;;;;;;;;4956323;28;20030;-85
2023/09/30 06:05:29;;;;;;;11.77;3.00;;;;;;;;;;4959845;28;20394;-84
2023/09/30 06:07:55;;;;;;;9.10;2.45;;;;;;;;;;4939861;28;20039;-86
2023/09/30 06:10:20;;;;;;;7.78;2.50;;;;;;;;;;4958353;28;20050;-84
2023/09/30 06:12:54;;;;;;;9.02;2.60;;;;;;;;;;4962964;28;20034;-84
2023/09/30 06:15:21;;;;;;;11.05;2.80;;;;;;;;;;4960701;28;20038;-85
2023/09/30 06:17:49;;;;;;;11.33;3.13;;;;;;;;;;4941487;28;20146;-85
2023/09/30 06:20:17;;;;;;;11.48;3.10;;;;;;;;;;4956748;28;20035;-84
2023/09/30 06:22:47;;;;;;;10.48;2.92;;;;;;;;;;4971967;28;20061;-84
2023/09/30 06:25:13;;;;;;;9.73;3.30;;;;;;;;;;4972574;28;20038;-84
2023/09/30 06:27:39;;;;;;;11.98;3.10;;;;;;;;;;4946528;28;20380;-84
2023/09/30 06:30:05;;;;;;;16.45;3.05;;;;;;;;;;4956920;28;20047;-85
2023/09/30 06:32:31;;;;;;;8.23;2.90;;;;;;;;;;4970553;28;20495;-84
2023/09/30 06:34:56;;;;;;;10.63;2.95;;;;;;;;;;4946568;28;20039;-84
2023/09/30 06:37:26;;;;;;;8.88;2.40;;;;;;;;;;4957969;28;20035;-84
2023/09/30 06:39:51;;;;;;;12.60;3.13;;;;;;;;;;4972130;28;20038;-84
2023/09/30 06:42:17;;;;;;;9.80;2.83;;;;;;;;;;4957671;28;20086;-84
2023/09/30 06:44:43;;;;;;;10.23;2.95;;;;;;;;;;4936866;28;20118;-83
2023/09/30 06:47:12;;;;;;;11.90;3.08;;;;;;;;;;4963768;28;20043;-85
2023/09/30 06:49:38;;;;;;;14.55;3.05;;;;;;;;;;4959037;28;20066;-83
2023/09/30 06:52:04;;;;;;;11.00;2.88;;;;;;;;;;4945964;28;20184;-84
2023/09/30 06:54:31;;;;;;;10.23;3.08;;;;;;;;;;4974325;28;20480;-84
2023/09/30 06:56:57;;;;;;;13.57;3.22;;;;;;;;;;4947505;28;20566;-83
2023/09/30 06:59:26;;;;;;;12.70;2.90;;;;;;;;;;4958176;28;20043;-84
2023/09/30 07:01:51;;;;;;;13.05;2.83;;;;;;;;;;4958547;28;20517;-83
2023/09/30 07:04:17;;;;;;;12.45;3.50;;;;;;;;;;4966299;28;20042;-84
2023/09/30 07:06:42;;;;;;;10.20;2.95;;;;;;;;;;4961719;28;20039;-84
2023/09/30 07:09:10;;;;;;;12.10;3.25;;;;;;;;;;4946020;28;20093;-84
2023/09/30 07:11:36;;;;;;;10.10;2.63;;;;;;;;;;4966158;28;20446;-84
2023/09/30 07:14:02;;;;;;;9.63;2.65;;;;;;;;;;4976162;28;20074;-83
2023/09/30 07:16:27;;;;;;;10.35;2.67;;;;;;;;;;4950755;28;20051;-85
2023/09/30 07:18:55;;;;;;;11.82;3.03;;;;;;;;;;4959039;28;20043;-85
2023/09/30 07:21:20;;;;;;;10.63;2.58;;;;;;;;;;4948293;28;20114;-84
2023/09/30 07:23:47;;;;;;;12.02;2.63;;;;;;;;;;4943033;28;20034;-85
2023/09/30 07:26:14;;;;;;;10.77;2.63;;;;;;;;;;4974309;28;20038;-85
2023/09/30 07:28:40;;;;;;;10.40;2.58;;;;;;;;;;4961384;28;20046;-85
2023/09/30 07:31:06;;;;;;;14.20;3.15;;;;;;;;;;4958467;28;20711;-84
2023/09/30 07:33:32;;;;;;;11.45;2.55;;;;;;;;;;4960608;28;20436;-84
2023/09/30 07:35:57;;;;;;;10.82;2.53;;;;;;;;;;4943308;28;20031;-84
2023/09/30 07:38:23;;;;;;;11.57;3.13;;;;;;;;;;4961174;28;20035;-86
2023/09/30 07:40:51;;;;;;;9.10;2.65;;;;;;;;;;4981615;28;20134;-84
2023/09/30 07:43:17;;;;;;;13.40;2.80;;;;;;;;;;4966343;28;20035;-83
2023/09/30 07:45:43;;;;;;;11.95;2.60;;;;;;;;;;4960076;28;20035;-79
2023/09/30 07:48:09;;;;;;;9.75;2.53;;;;;;;;;;4948262;28;20416;-80
2023/09/30 07:50:35;;;;;;;11.05;2.83;;;;;;;;;;4963483;28;20042;-79
2023/09/30 07:53:01;;;;;;;13.43;2.45;;;;;;;;;;4958074;28;20035;-78
2023/09/30 07:55:26;;;;;;;9.55;2.63;;;;;;;;;;4972936;28;20043;-78
2023/09/30 07:57:52;;;;;;;10.63;2.40;;;;;;;;;;4958341;28;20035;-79
2023/09/30 08:00:21;;;;;;;11.10;2.70;;;;;;;;;;4949437;28;20031;-79
2023/09/30 08:02:46;;;;;;;11.85;3.00;;;;;;;;;;4957497;28;20042;-80
2023/09/30 08:05:12;;;;;;;13.25;2.53;;;;;;;;;;4976685;28;20483;-79
2023/09/30 08:07:38;;;;;;;8.00;2.10;;;;;;;;;;4972658;28;20045;-79
2023/09/30 08:10:07;;;;;;;9.93;2.42;;;;;;;;;;4957004;28;20478;-79
2023/09/30 08:12:34;;;;;;;9.13;2.42;;;;;;;;;;4976047;28;20130;-80
2023/09/30 08:15:00;;;;;;;9.50;2.53;;;;;;;;;;4958713;28;20055;-80
2023/09/30 08:17:25;;;;;;;10.73;2.20;;;;;;;;;;4980166;28;20030;-79
2023/09/30 08:19:51;;;;;;;13.25;2.45;;;;;;;;;;4942018;28;20320;-81
2023/09/30 08:22:16;;;;;;;9.77;2.80;;;;;;;;;;4941236;28;20495;-78
2023/09/30 08:24:45;;;;;;;9.38;3.08;;;;;;;;;;4956185;28;20041;-79
2023/09/30 08:27:13;;;;;;;8.65;2.22;;;;;;;;;;4944407;28;20031;-79
2023/09/30 08:29:39;;;;;;;12.38;2.58;;;;;;;;;;4948132;28;20035;-80
2023/09/30 08:32:04;;;;;;;11.48;2.60;;;;;;;;;;4974703;28;20376;-80
2023/09/30 08:34:30;;;;;;;9.38;2.78;;;;;;;;;;4978200;28;20063;-81
2023/09/30 08:36:58;;;;;;;12.52;2.42;;;;;;;;;;4941527;28;20577;-80
2023/09/30 08:39:24;;;;;;;10.02;2.30;;;;;;;;;;4942897;28;20072;-81
2023/09/30 08:41:50;;;;;;;10.23;2.50;;;;;;;;;;4938882;28;20072;-80
2023/09/30 08:44:16;;;;;;;10.27;2.35;;;;;;;;;;4941766;28;20047;-81
2023/09/30 08:46:42;;;;;;;11.75;2.28;;;;;;;;;;4958929;28;20042;-81
2023/09/30 08:49:07;;;;;;;11.57;2.40;;;;;;;;;;4963902;28;20158;-80
2023/09/30 08:51:35;;;;;;;10.50;2.67;;;;;;;;;;4958256;28;20368;-80
2023/09/30 08:54:03;;;;;;;7.82;2.00;;;;;;;;;;4957705;28;20047;-80
2023/09/30 08:56:34;;;;;;;7.60;2.17;;;;;;;;;;4956387;28;21074;-81
2023/09/30 08:59:02;;;;;;;13.20;2.72;;;;;;;;;;4964003;28;20087;-81
2023/09/30 09:01:29;;;;;;;10.77;2.47;;;;;;;;;;4958054;28;20546;-80
2023/09/30 09:03:55;;;;;;;9.35;2.30;;;;;;;;;;4974083;28;20042;-81
2023/09/30 09:06:23;;;;;;;12.18;2.38;;;;;;;;;;4958332;28;20035;-81
2023/09/30 09:08:50;;;;;;;9.95;2.42;;;;;;;;;;4940228;28;20044;-80
2023/09/30 09:11:15;;;;;;;10.07;2.22;;;;;;;;;;4956011;28;20039;-82
2023/09/30 09:13:55;;;;;;;12.93;2.38;;;;;;;;;;4959328;28;20094;-81
2023/09/30 09:16:22;;;;;;;9.70;1.75;;;;;;;;;;4956439;28;20031;-80
2023/09/30 09:18:48;;;;;;;11.52;2.33;;;;;;;;;;4964265;28;20035;-81
2023/09/30 09:21:14;;;;;;;10.75;2.15;;;;;;;;;;4959285;28;20034;-80
2023/09/30 09:23:44;;;;;;;8.73;1.65;;;;;;;;;;4959216;28;20039;-80
2023/09/30 09:26:23;;;;;;;7.13;2.10;;;;;;;;;;4956416;28;20038;-81
2023/09/30 09:28:49;;;;;;;12.35;2.20;;;;;;;;;;4956433;28;20035;-80
2023/09/30 09:31:26;;;;;;;8.48;1.98;;;;;;;;;;4938119;28;20035;-80
2023/09/30 09:33:53;;;;;;;11.02;1.95;;;;;;;;;;4962881;28;20538;-85
2023/09/30 09:36:19;;;;;;;6.78;1.80;;;;;;;;;;4944776;28;20129;-81
2023/09/30 09:38:57;;;;;;;11.95;2.22;;;;;;;;;;4955318;28;20129;-83
2023/09/30 09:41:27;;;;;;;8.13;1.77;;;;;;;;;;4938834;28;20063;-86
2023/09/30 09:44:00;;;;;;;8.60;1.92;;;;;;;;;;4936806;28;20045;-80
2023/09/30 09:46:27;;;;;;;9.27;1.80;;;;;;;;;;4952079;28;20041;-82
2023/09/30 09:48:53;;;;;;;10.40;2.22;;;;;;;;;;4931902;28;20051;-81
2023/09/30 09:51:20;;;;;;;8.32;1.98;;;;;;;;;;4932170;28;20039;-82
2023/09/30 09:53:48;;;;;;;11.95;1.73;;;;;;;;;;4947158;28;20043;-80
2023/09/30 09:56:14;;;;;;;10.85;2.30;;;;;;;;;;4944154;28;20038;-80
2023/09/30 09:58:42;;;;;;;6.25;1.75;;;;;;;;;;4962330;28;20035;-79
2023/09/30 10:01:12;;;;;;;7.57;1.73;;;;;;;;;;4957009;28;20121;-80
2023/09/30 10:03:44;;;;;;;9.98;2.13;;;;;;;;;;4977385;28;20142;-82
2023/09/30 10:06:10;;;;;;;9.90;1.73;;;;;;;;;;4945268;28;20042;-82
2023/09/30 10:08:41;;;;;;;7.20;1.80;;;;;;;;;;4956030;28;20027;-81
2023/09/30 10:11:07;;;;;;;8.23;2.03;;;;;;;;;;4938363;28;20047;-81
2023/09/30 10:14:07;;;;;;;8.02;1.80;;;;;;;;;;4956337;28;20386;-81
2023/09/30 10:16:35;;;;;;;10.00;1.88;;;;;;;;;;4926943;28;20074;-83
2023/09/30 10:19:17;;;;;;;10.13;1.77;;;;;;;;;;4960499;28;20093;-82
2023/09/30 10:22:21;;;;;;;10.88;2.00;;;;;;;;;;4958016;28;20043;-83
2023/09/30 10:24:48;;;;;;;6.53;1.50;;;;;;;;;;4959199;28;20031;-82
2023/09/30 10:27:31;;;;;;;11.65;1.80;;;;;;;;;;4957983;28;20573;-80
2023/09/30 10:30:08;;;;;;;10.52;1.80;;;;;;;;;;4956640;28;20380;-82
2023/09/30 10:32:56;;;;;;;8.73;2.00;;;;;;;;;;4969913;28;21188;-82
2023/09/30 10:35:31;;;;;;;5.45;1.40;;;;;;;;;;4944292;28;20045;-79
2023/09/30 10:38:21;;;;;;;6.63;1.15;;;;;;;;;;4958459;28;20050;-80
2023/09/30 10:40:47;;;;;;;9.88;1.98;;;;;;;;;;4958681;28;20034;-82
2023/09/30 10:43:32;;;;;;;10.38;1.70;;;;;;;;;;4950753;28;20042;-82
2023/09/30 10:45:58;;;;;;;8.80;1.70;;;;;;;;;;4964657;28;20118;-83
2023/09/30 10:48:34;;;;;;;9.38;1.75;;;;;;;;;;4959474;28;20039;-81
2023/09/30 10:51:01;;;;;;;7.90;1.77;;;;;;;;;;4961394;28;20622;-80
2023/09/30 10:53:28;;;;;;;9.32;2.05;;;;;;;;;;4976422;28;20035;-81
2023/09/30 10:56:00;;;;;;;7.68;1.50;;;;;;;;;;4952293;28;20422;-81
2023/09/30 10:58:50;;;;;;;9.55;1.95;;;;;;;;;;4966769;28;20030;-83
2023/09/30 11:01:17;;;;;;;9.05;1.50;;;;;;;;;;4965730;28;20039;-82
2023/09/30 11:03:44;;;;;;;7.18;1.52;;;;;;;;;;4949810;28;20050;-82
2023/09/30 11:06:17;;;;;;;6.00;1.42;;;;;;;;;;4921485;28;20034;-80
2023/09/30 11:08:51;;;;;;;10.20;1.70;;;;;;;;;;4932800;28;20073;-80
2023/09/30 11:11:17;;;;;;;9.30;1.70;;;;;;;;;;4952727;28;20147;-81
2023/09/30 11:13:45;;;;;;;6.82;1.55;;;;;;;;;;4951572;28;20043;-81
2023/09/30 11:16:12;;;;;;;6.55;1.83;;;;;;;;;;4958618;28;20526;-82
2023/09/30 11:18:38;;;;;;;6.30;1.45;;;;;;;;;;4962613;28;20446;-81
2023/09/30 11:21:11;;;;;;;4.50;1.35;;;;;;;;;;4959587;28;20043;-81
2023/09/30 11:23:37;;;;;;;7.40;1.55;;;;;;;;;;4979612;28;20043;-81
2023/09/30 11:26:04;;;;;;;6.97;1.67;;;;;;;;;;4966025;28;20043;-85
2023/09/30 11:28:41;;;;;;;7.82;1.50;;;;;;;;;;4965830;28;20038;-86
2023/09/30 11:31:13;;;;;;;6.88;1.45;;;;;;;;;;4966947;28;20503;-85
2023/09/30 11:33:56;;;;;;;6.57;1.40;;;;;;;;;;4959385;28;20049;-86
2023/09/30 11:36:22;;;;;;;6.75;1.90;;;;;;;;;;4949974;28;20097;-85
2023/09/30 11:38:49;;;;;;;8.02;1.70;;;;;;;;;;4942793;28;20038;-85
2023/09/30 11:41:17;;;;;;;6.50;1.70;;;;;;;;;;4940877;28;20031;-84
2023/09/30 11:44:07;;;;;;;6.38;1.35;;;;;;;;;;4983439;28;20402;-85
2023/09/30 11:46:36;;;;;;;6.18;1.27;;;;;;;;;;4948490;28;20045;-86
2023/09/30 11:49:04;;;;;;;5.85;1.20;;;;;;;;;;4961837;28;20051;-88
2023/09/30 11:51:43;;;;;;;7.05;1.52;;;;;;;;;;4943129;28;20130;-86
2023/09/30 11:54:10;;;;;;;9.52;1.60;;;;;;;;;;4960061;28;20031;-86
2023/09/30 11:56:36;;;;;;;8.25;1.52;;;;;;;;;;4940698;28;20035;-86
2023/09/30 11:59:02;;;;;;;7.20;1.77;;;;;;;;;;4960750;28;20102;-86
2023/09/30 12:01:30;;;;;;;5.95;1.40;;;;;;;;;;4965134;28;20915;-87
2023/09/30 12:03:56;;;;;;;5.13;1.15;;;;;;;;;;4966178;28;20038;-86
2023/09/30 12:06:22;;;;;;;5.93;1.50;;;;;;;;;;4960909;28;20553;-88
2023/09/30 12:08:47;;;;;;;6.50;1.42;;;;;;;;;;4940131;28;20098;-87
2023/09/30 12:11:15;;;;;;;4.57;1.23;;;;;;;;;;4976226;28;20035;-86
2023/09/30 12:13:41;;;;;;;11.05;1.73;;;;;;;;;;4959393;28;20043;-86
2023/09/30 12:16:07;;;;;;;5.82;1.38;;;;;;;;;;4965943;28;20089;-85
2023/09/30 12:18:32;;;;;;;5.40;1.23;;;;;;;;;;4958742;28;20491;-86
2023/09/30 12:20:58;;;;;;;7.15;1.38;;;;;;;;;;4976684;28;20062;-86
2023/09/30 12:23:24;;;;;;;7.68;1.50;;;;;;;;;;4975013;28;20134;-85
2023/09/30 12:25:50;;;;;;;7.35;1.83;;;;;;;;;;4949960;28;20114;-86
2023/09/30 12:28:17;;;;;;;6.53;1.35;;;;;;;;;;4941595;28;20049;-86
2023/09/30 12:30:43;;;;;;;8.27;2.00;;;;;;;;;;4963084;28;20099;-85
2023/09/30 12:33:08;;;;;;;7.32;1.42;;;;;;;;;;4957093;28;20042;-84
2023/09/30 12:35:34;;;;;;;6.43;1.33;;;;;;;;;;4942087;28;20056;-85
2023/09/30 12:37:59;;;;;;;6.60;1.70;;;;;;;;;;4957741;28;20494;-84
2023/09/30 12:40:25;;;;;;;7.22;1.60;;;;;;;;;;4948679;28;20074;-84
2023/09/30 12:42:51;;;;;;;8.85;1.55;;;;;;;;;;4964247;28;20058;-85
2023/09/30 12:45:18;;;;;;;8.45;1.48;;;;;;;;;;4968460;28;20058;-86
2023/09/30 12:47:44;;;;;;;6.13;1.77;;;;;;;;;;4931446;28;20093;-85
2023/09/30 12:50:10;;;;;;;5.35;1.27;;;;;;;;;;4956101;28;20050;-85
2023/09/30 12:52:35;;;;;;;5.55;1.33;;;;;;;;;;4938720;28;20151;-86
2023/09/30 12:55:01;;;;;;;5.43;1.10;;;;;;;;;;4940271;28;21116;-85
2023/09/30 12:57:27;;;;;;;5.68;1.35;;;;;;;;;;4955373;28;20491;-85
2023/09/30 12:59:55;;;;;;;6.05;1.05;;;;;;;;;;4926987;28;20047;-85
2023/09/30 13:02:20;;;;;;;6.85;1.23;;;;;;;;;;4955785;28;20531;-85
2023/09/30 13:04:47;;;;;;;7.82;1.15;;;;;;;;;;4964476;28;20035;-84
2023/09/30 13:07:16;;;;;;;5.55;1.20;;;;;;;;;;4974020;28;20041;-84
2023/09/30 13:09:42;;;;;;;5.80;1.02;;;;;;;;;;4949285;28;20046;-85
2023/09/30 13:12:08;;;;;;;5.95;1.27;;;;;;;;;;4958641;28;20107;-86
2023/09/30 13:14:34;;;;;;;6.28;1.10;;;;;;;;;;4946002;28;20455;-85
2023/09/30 13:16:59;;;;;;;5.15;1.35;;;;;;;;;;4965044;28;20046;-84
2023/09/30 13:19:25;;;;;;;6.47;1.10;;;;;;;;;;4958538;28;20041;-86
2023/09/30 13:21:52;;;;;;;6.60;1.20;;;;;;;;;;4978299;28;20483;-86
2023/09/30 13:24:19;;;;;;;5.43;0.90;;;;;;;;;;4950658;28;20570;-85
2023/09/30 13:26:48;;;;;;;7.63;1.30;;;;;;;;;;4957030;28;20043;-84
2023/09/30 13:29:16;;;;;;;7.45;1.25;;;;;;;;;;4926233;28;20038;-86
2023/09/30 13:31:42;;;;;;;8.30;1.30;;;;;;;;;;4962109;28;20041;-86
2023/09/30 13:34:21;;;;;;;6.78;1.10;;;;;;;;;;4938840;28;20038;-85
2023/09/30 13:36:47;;;;;;;8.38;1.95;;;;;;;;;;4945609;28;20118;-86
2023/09/30 13:39:17;;;;;;;6.03;1.17;;;;;;;;;;4933962;28;20130;-84
2023/09/30 13:41:46;;;;;;;4.38;1.00;;;;;;;;;;4956043;28;20043;-84
2023/09/30 13:44:13;;;;;;;9.77;1.50;;;;;;;;;;4957033;28;20490;-83
2023/09/30 13:46:39;;;;;;;5.70;1.15;;;;;;;;;;4938339;28;20035;-83
2023/09/30 13:49:08;;;;;;;7.75;1.23;;;;;;;;;;4949885;28;20079;-83
2023/09/30 13:51:33;;;;;;;6.30;1.30;;;;;;;;;;4931773;28;20039;-84
2023/09/30 13:54:00;;;;;;;5.75;1.35;;;;;;;;;;4955878;28;20043;-84
2023/09/30 13:56:25;;;;;;;7.13;1.40;;;;;;;;;;4941868;28;20871;-84
2023/09/30 13:58:52;;;;;;;6.15;1.13;;;;;;;;;;4973756;28;20031;-83
2023/09/30 14:01:19;;;;;;;6.07;1.17;;;;;;;;;;4957151;28;20062;-84
2023/09/30 14:03:46;;;;;;;6.80;1.10;;;;;;;;;;4955309;28;20111;-84
2023/09/30 14:06:13;;;;;;;4.57;1.00;;;;;;;;;;4964022;28;20102;-85
2023/09/30 14:08:39;;;;;;;6.60;1.10;;;;;;;;;;4958656;28;20491;-84
2023/09/30 14:11:05;;;;;;;8.57;1.30;;;;;;;;;;4936839;28;20214;-86
2023/09/30 14:13:32;;;;;;;4.82;1.10;;;;;;;;;;4958251;28;20093;-86
2023/09/30 14:15:57;;;;;;;6.80;1.30;;;;;;;;;;4958445;28;20392;-85
2023/09/30 14:18:26;;;;;;;8.02;1.23;;;;;;;;;;4951146;28;20086;-87
2023/09/30 14:20:51;;;;;;;6.03;1.25;;;;;;;;;;4945856;28;20105;-85
2023/09/30 14:23:16;;;;;;;5.88;1.00;;;;;;;;;;4954912;28;20105;-86
2023/09/30 14:25:45;;;;;;;4.60;0.88;;;;;;;;;;4951279;28;20109;-86
2023/09/30 14:28:10;;;;;;;8.45;1.45;;;;;;;;;;4959210;28;20042;-86
2023/09/30 14:30:36;;;;;;;4.93;0.95;;;;;;;;;;4961633;28;20043;-85
2023/09/30 14:33:03;;;;;;;5.63;0.88;;;;;;;;;;4931060;28;20491;-85
2023/09/30 14:35:37;;;;;;;3.55;1.05;;;;;;;;;;4924492;28;20046;-85
2023/09/30 14:38:04;;;;;;;5.28;0.90;;;;;;;;;;4936924;28;20094;-85
2023/09/30 14:40:34;;;;;;;4.50;0.70;;;;;;;;;;4942233;28;20031;-85